createdAt,value
2018-07-17T00:00:10.115Z,1006.58
2018-07-17T00:02:04.493Z,1006.60
2018-07-17T00:03:04.435Z,1006.60
2018-07-17T00:04:57.743Z,1006.55
2018-07-17T00:05:57.669Z,1006.60
2018-07-17T00:07:50.956Z,1006.60
2018-07-17T00:08:50.897Z,1006.55
2018-07-17T00:10:44.205Z,1006.53
2018-07-17T00:11:44.128Z,1006.54
2018-07-17T00:13:37.414Z,1006.54
2018-07-17T00:14:37.356Z,1006.52
2018-07-17T00:16:30.662Z,1006.50
2018-07-17T00:17:30.585Z,1006.51
2018-07-17T00:19:23.901Z,1006.51
2018-07-17T00:20:23.811Z,1006.54
2018-07-17T00:22:17.096Z,1006.52
2018-07-17T00:23:17.039Z,1006.53
2018-07-17T00:25:10.512Z,1006.53
2018-07-17T00:26:10.435Z,1006.49
2018-07-17T00:28:03.712Z,1006.52
2018-07-17T00:29:03.654Z,1006.48
2018-07-17T00:30:56.958Z,1006.55
2018-07-17T00:31:56.881Z,1006.53
2018-07-17T00:33:50.165Z,1006.52
2018-07-17T00:34:50.108Z,1006.51
2018-07-17T00:36:43.411Z,1006.50
2018-07-17T00:37:43.334Z,1006.49
2018-07-17T00:39:36.618Z,1006.50
2018-07-17T00:40:36.561Z,1006.52
2018-07-17T00:42:29.863Z,1006.52
2018-07-17T00:43:29.800Z,1006.52
2018-07-17T00:45:23.088Z,1006.48
2018-07-17T00:46:23.011Z,1006.49
2018-07-17T00:48:16.494Z,1006.46
2018-07-17T00:49:16.433Z,1006.45
2018-07-17T00:51:09.735Z,1006.47
2018-07-17T00:52:09.658Z,1006.44
2018-07-17T00:54:02.943Z,1006.44
2018-07-17T00:55:02.884Z,1006.48
2018-07-17T00:56:56.191Z,1006.40
2018-07-17T00:57:56.114Z,1006.38
2018-07-17T00:59:49.392Z,1006.36
2018-07-17T01:00:49.336Z,1006.38
2018-07-17T01:02:42.637Z,1006.38
2018-07-17T01:03:42.560Z,1006.38
2018-07-17T01:05:35.846Z,1006.39
2018-07-17T01:06:35.786Z,1006.37
2018-07-17T01:08:29.089Z,1006.35
2018-07-17T01:09:29.012Z,1006.30
2018-07-17T01:11:22.552Z,1006.25
2018-07-17T01:12:22.474Z,1006.26
2018-07-17T01:14:15.760Z,1006.28
2018-07-17T01:15:15.702Z,1006.28
2018-07-17T01:17:09.003Z,1006.31
2018-07-17T01:18:08.927Z,1006.27
2018-07-17T01:20:02.210Z,1006.24
2018-07-17T01:21:02.151Z,1006.25
2018-07-17T01:22:55.453Z,1006.22
2018-07-17T01:23:55.378Z,1006.22
2018-07-17T01:25:48.660Z,1006.27
2018-07-17T01:26:48.602Z,1006.25
2018-07-17T01:28:41.905Z,1006.29
2018-07-17T01:29:41.829Z,1006.26
2018-07-17T01:31:35.146Z,1006.24
2018-07-17T01:32:35.061Z,1006.23
2018-07-17T01:34:28.942Z,1006.21
2018-07-17T01:35:28.432Z,1006.20
2018-07-17T01:37:21.734Z,1006.19
2018-07-17T01:38:21.693Z,1006.19
2018-07-17T01:40:14.939Z,1006.21
2018-07-17T01:41:14.880Z,1006.12
2018-07-17T01:43:08.255Z,1006.15
2018-07-17T01:44:08.106Z,1006.10
2018-07-17T01:46:02.493Z,1006.14
2018-07-17T01:47:02.434Z,1006.08
2018-07-17T01:48:55.736Z,1006.08
2018-07-17T01:49:55.656Z,1006.15
2018-07-17T01:51:49.045Z,1006.08
2018-07-17T01:52:48.881Z,1006.07
2018-07-17T01:54:42.182Z,1006.07
2018-07-17T01:55:42.104Z,1006.09
2018-07-17T01:57:35.405Z,1006.11
2018-07-17T01:58:35.328Z,1006.10
2018-07-17T02:00:28.617Z,1006.12
2018-07-17T02:01:28.554Z,1006.08
2018-07-17T02:03:21.854Z,1006.07
2018-07-17T02:04:21.775Z,1006.07
2018-07-17T02:06:15.061Z,1006.08
2018-07-17T02:07:15.003Z,1006.07
2018-07-17T02:09:08.509Z,1006.02
2018-07-17T02:10:08.431Z,1006.04
2018-07-17T02:12:01.714Z,1006.05
2018-07-17T02:13:01.656Z,1006.08
2018-07-17T02:14:54.956Z,1006.04
2018-07-17T02:15:54.876Z,1006.07
2018-07-17T02:17:48.194Z,1006.04
2018-07-17T02:18:48.167Z,1006.05
2018-07-17T02:20:41.381Z,1006.02
2018-07-17T02:21:41.324Z,1006.03
2018-07-17T02:23:34.624Z,1006.02
2018-07-17T02:24:34.547Z,1006.05
2018-07-17T02:26:27.829Z,1006.05
2018-07-17T02:27:27.772Z,1006.00
2018-07-17T02:29:21.071Z,1006.04
2018-07-17T02:30:20.993Z,1006.00
2018-07-17T02:32:14.490Z,1006.04
2018-07-17T02:33:14.431Z,1006.01
2018-07-17T02:35:07.731Z,1006.03
2018-07-17T02:36:07.653Z,1006.05
2018-07-17T02:38:00.937Z,1006.10
2018-07-17T02:39:00.876Z,1006.08
2018-07-17T02:40:54.179Z,1006.03
2018-07-17T02:41:54.099Z,1006.08
2018-07-17T02:43:47.413Z,1006.07
2018-07-17T02:44:47.319Z,1006.09
2018-07-17T02:46:40.609Z,1006.08
2018-07-17T02:47:40.549Z,1006.06
2018-07-17T02:49:33.847Z,1006.08
2018-07-17T02:50:33.768Z,1006.04
2018-07-17T02:52:27.056Z,1006.04
2018-07-17T02:53:26.989Z,1006.05
2018-07-17T02:55:20.507Z,1006.06
2018-07-17T02:56:20.429Z,1006.09
2018-07-17T02:58:13.707Z,1006.12
2018-07-17T02:59:13.642Z,1006.15
2018-07-17T03:01:06.943Z,1006.14
2018-07-17T03:02:06.864Z,1006.14
2018-07-17T03:04:00.135Z,1006.14
2018-07-17T03:05:00.077Z,1006.15
2018-07-17T03:06:53.544Z,1006.11
2018-07-17T03:07:53.296Z,1006.09
2018-07-17T03:09:46.600Z,1006.12
2018-07-17T03:10:46.517Z,1006.13
2018-07-17T03:12:39.805Z,1006.14
2018-07-17T03:13:39.742Z,1006.11
2018-07-17T03:15:33.033Z,1006.11
2018-07-17T03:16:32.954Z,1006.13
2018-07-17T03:18:26.227Z,1006.10
2018-07-17T03:19:26.168Z,1006.12
2018-07-17T03:21:19.465Z,1006.07
2018-07-17T03:22:19.390Z,1006.07
2018-07-17T03:24:12.672Z,1006.08
2018-07-17T03:25:12.608Z,1006.06
2018-07-17T03:27:06.011Z,1006.11
2018-07-17T03:28:05.831Z,1006.11
2018-07-17T03:29:59.129Z,1006.09
2018-07-17T03:30:59.049Z,1006.11
2018-07-17T03:32:52.490Z,1006.12
2018-07-17T03:33:52.478Z,1006.13
2018-07-17T03:35:45.721Z,1006.11
2018-07-17T03:36:45.645Z,1006.11
2018-07-17T03:38:38.922Z,1006.13
2018-07-17T03:39:38.861Z,1006.13
2018-07-17T03:41:32.162Z,1006.15
2018-07-17T03:42:32.080Z,1006.14
2018-07-17T03:44:25.361Z,1006.13
2018-07-17T03:45:25.301Z,1006.17
2018-07-17T03:47:18.599Z,1006.16
2018-07-17T03:48:18.520Z,1006.18
2018-07-17T03:50:11.833Z,1006.22
2018-07-17T03:51:11.742Z,1006.21
2018-07-17T03:53:05.017Z,1006.26
2018-07-17T03:54:04.954Z,1006.23
2018-07-17T03:55:58.252Z,1006.29
2018-07-17T03:56:58.173Z,1006.24
2018-07-17T03:58:51.445Z,1006.27
2018-07-17T03:59:51.389Z,1006.24
2018-07-17T04:01:44.676Z,1006.22
2018-07-17T04:02:44.610Z,1006.23
2018-07-17T04:04:37.878Z,1006.21
2018-07-17T04:05:37.818Z,1006.19
2018-07-17T04:07:31.117Z,1006.18
2018-07-17T04:08:31.037Z,1006.17
2018-07-17T04:10:24.490Z,1006.21
2018-07-17T04:11:24.433Z,1006.16
2018-07-17T04:13:17.792Z,1006.21
2018-07-17T04:14:17.652Z,1006.23
2018-07-17T04:16:10.954Z,1006.21
2018-07-17T04:17:10.873Z,1006.18
2018-07-17T04:19:04.154Z,1006.19
2018-07-17T04:20:04.094Z,1006.23
2018-07-17T04:21:57.395Z,1006.22
2018-07-17T04:22:57.314Z,1006.26
2018-07-17T04:24:50.600Z,1006.24
2018-07-17T04:25:50.536Z,1006.26
2018-07-17T04:27:43.836Z,1006.27
2018-07-17T04:28:43.762Z,1006.24
2018-07-17T04:30:37.039Z,1006.27
2018-07-17T04:31:37.000Z,1006.28
2018-07-17T04:33:30.531Z,1006.29
2018-07-17T04:34:30.431Z,1006.27
2018-07-17T04:36:23.711Z,1006.31
2018-07-17T04:37:23.653Z,1006.31
2018-07-17T04:39:16.956Z,1006.31
2018-07-17T04:40:16.877Z,1006.29
2018-07-17T04:42:10.175Z,1006.32
2018-07-17T04:43:10.097Z,1006.31
2018-07-17T04:45:03.378Z,1006.31
2018-07-17T04:46:03.323Z,1006.29
2018-07-17T04:47:56.612Z,1006.29
2018-07-17T04:48:56.533Z,1006.29
2018-07-17T04:50:49.814Z,1006.34
2018-07-17T04:51:49.755Z,1006.37
2018-07-17T04:53:43.079Z,1006.37
2018-07-17T04:54:42.977Z,1006.43
2018-07-17T04:56:36.487Z,1006.42
2018-07-17T04:57:36.431Z,1006.42
2018-07-17T04:59:29.725Z,1006.42
2018-07-17T05:00:29.647Z,1006.46
2018-07-17T05:02:22.932Z,1006.45
2018-07-17T05:03:22.870Z,1006.51
2018-07-17T05:05:16.172Z,1006.50
2018-07-17T05:06:16.097Z,1006.50
2018-07-17T05:08:09.386Z,1006.51
2018-07-17T05:09:09.307Z,1006.52
2018-07-17T05:11:02.589Z,1006.54
2018-07-17T05:12:02.532Z,1006.52
2018-07-17T05:13:55.833Z,1006.52
2018-07-17T05:14:55.755Z,1006.52
2018-07-17T05:16:49.141Z,1006.47
2018-07-17T05:17:48.979Z,1006.44
2018-07-17T05:19:42.512Z,1006.49
2018-07-17T05:20:42.431Z,1006.46
2018-07-17T05:22:35.714Z,1006.44
2018-07-17T05:23:35.661Z,1006.48
2018-07-17T05:25:28.957Z,1006.42
2018-07-17T05:26:28.878Z,1006.42
2018-07-17T05:28:22.155Z,1006.42
2018-07-17T05:29:22.096Z,1006.45
2018-07-17T05:31:15.398Z,1006.45
2018-07-17T05:32:15.323Z,1006.41
2018-07-17T05:34:08.632Z,1006.39
2018-07-17T05:35:08.600Z,1006.41
2018-07-17T05:37:01.841Z,1006.42
2018-07-17T05:38:01.786Z,1006.46
2018-07-17T05:39:55.086Z,1006.51
2018-07-17T05:40:55.009Z,1006.48
2018-07-17T05:42:48.493Z,1006.56
2018-07-17T05:43:48.433Z,1006.54
2018-07-17T05:45:42.849Z,1006.56
2018-07-17T05:46:42.507Z,1006.58
2018-07-17T05:48:35.786Z,1006.56
2018-07-17T05:49:35.725Z,1006.53
2018-07-17T05:51:29.034Z,1006.51
2018-07-17T05:52:28.952Z,1006.53
2018-07-17T05:54:22.514Z,1006.57
2018-07-17T05:55:22.425Z,1006.56
2018-07-17T05:57:15.710Z,1006.54
2018-07-17T05:58:15.651Z,1006.54
2018-07-17T06:00:08.955Z,1006.55
2018-07-17T06:01:08.880Z,1006.56
2018-07-17T06:03:02.166Z,1006.59
2018-07-17T06:04:02.107Z,1006.58
2018-07-17T06:05:55.513Z,1006.62
2018-07-17T06:06:55.335Z,1006.63
2018-07-17T06:08:48.614Z,1006.68
2018-07-17T06:09:48.557Z,1006.69
2018-07-17T06:11:41.863Z,1006.79
2018-07-17T06:12:41.787Z,1006.81
2018-07-17T06:14:36.074Z,1006.86
2018-07-17T06:15:36.018Z,1006.89
2018-07-17T06:17:29.330Z,1006.89
2018-07-17T06:18:29.249Z,1006.91
2018-07-17T06:20:22.555Z,1006.90
2018-07-17T06:21:22.482Z,1006.93
2018-07-17T06:23:15.766Z,1006.97
2018-07-17T06:24:15.709Z,1006.99
2018-07-17T06:26:09.020Z,1007.06
2018-07-17T06:27:08.941Z,1007.03
2018-07-17T06:29:02.229Z,1007.06
2018-07-17T06:30:02.176Z,1007.15
2018-07-17T06:31:55.482Z,1007.31
2018-07-17T06:32:55.439Z,1007.27
2018-07-17T06:34:48.701Z,1007.28
2018-07-17T06:35:48.649Z,1007.30
2018-07-17T06:37:41.964Z,1007.32
2018-07-17T06:38:41.897Z,1007.31
2018-07-17T06:40:35.217Z,1007.26
2018-07-17T06:41:35.145Z,1007.29
2018-07-17T06:43:28.448Z,1007.30
2018-07-17T06:44:28.405Z,1007.25
2018-07-17T06:46:21.722Z,1007.27
2018-07-17T06:47:21.687Z,1007.27
2018-07-17T06:49:14.962Z,1007.22
2018-07-17T06:50:14.976Z,1007.26
2018-07-17T06:52:09.233Z,1007.27
2018-07-17T06:53:09.165Z,1007.27
2018-07-17T06:55:02.462Z,1007.40
2018-07-17T06:56:02.421Z,1007.39
2018-07-17T06:57:55.737Z,1007.34
2018-07-17T06:58:55.672Z,1007.39
2018-07-17T07:00:48.971Z,1007.35
2018-07-17T07:01:48.927Z,1007.34
2018-07-17T07:03:42.246Z,1007.35
2018-07-17T07:04:42.178Z,1007.36
2018-07-17T07:06:35.496Z,1007.38
2018-07-17T07:07:35.432Z,1007.40
2018-07-17T07:09:28.730Z,1007.38
2018-07-17T07:10:28.689Z,1007.36
2018-07-17T07:12:22.029Z,1007.39
2018-07-17T07:13:21.964Z,1007.34
2018-07-17T07:15:15.264Z,1007.39
2018-07-17T07:16:15.220Z,1007.39
2018-07-17T07:18:08.540Z,1007.42
2018-07-17T07:19:08.475Z,1007.42
2018-07-17T07:21:01.776Z,1007.48
2018-07-17T07:22:01.733Z,1007.53
2018-07-17T07:23:55.053Z,1007.56
2018-07-17T07:24:54.988Z,1007.56
2018-07-17T07:26:48.380Z,1007.56
2018-07-17T07:27:48.314Z,1007.60
2018-07-17T07:29:41.615Z,1007.62
2018-07-17T07:30:41.571Z,1007.66
2018-07-17T07:32:34.896Z,1007.68
2018-07-17T07:33:34.828Z,1007.66
2018-07-17T07:35:28.135Z,1007.70
2018-07-17T07:36:28.090Z,1007.71
2018-07-17T07:38:21.415Z,1007.77
2018-07-17T07:39:21.346Z,1007.81
2018-07-17T07:41:14.692Z,1007.90
2018-07-17T07:42:14.602Z,1007.83
2018-07-17T07:44:07.924Z,1007.95
2018-07-17T07:45:07.858Z,1008.00
2018-07-17T07:47:01.160Z,1008.08
2018-07-17T07:48:01.161Z,1008.05
2018-07-17T07:49:54.438Z,1008.07
2018-07-17T07:50:54.376Z,1008.04
2018-07-17T07:52:47.695Z,1008.03
2018-07-17T07:53:47.632Z,1008.03
2018-07-17T07:55:40.981Z,1008.09
2018-07-17T07:56:40.888Z,1008.05
2018-07-17T07:58:34.210Z,1008.10
2018-07-17T07:59:34.146Z,1008.08
2018-07-17T08:01:27.449Z,1008.06
2018-07-17T08:02:27.405Z,1008.09
2018-07-17T08:04:20.723Z,1008.12
2018-07-17T08:05:20.658Z,1008.08
2018-07-17T08:07:13.968Z,1008.00
2018-07-17T08:08:13.922Z,1008.00
2018-07-17T08:10:07.240Z,1008.00
2018-07-17T08:11:07.178Z,1008.00
2018-07-17T08:13:00.496Z,1007.98
2018-07-17T08:14:00.432Z,1007.98
2018-07-17T08:15:53.729Z,1007.89
2018-07-17T08:16:53.682Z,1007.85
2018-07-17T08:18:47.002Z,1007.69
2018-07-17T08:19:46.935Z,1007.64
2018-07-17T08:21:40.232Z,1007.54
2018-07-17T08:22:40.190Z,1007.52
2018-07-17T08:24:33.504Z,1007.50
2018-07-17T08:25:33.441Z,1007.45
2018-07-17T08:27:26.739Z,1007.47
2018-07-17T08:28:26.692Z,1007.45
2018-07-17T08:30:20.007Z,1007.37
2018-07-17T08:31:19.942Z,1007.34
2018-07-17T08:33:13.248Z,1007.31
2018-07-17T08:34:13.203Z,1007.33
2018-07-17T08:36:06.515Z,1007.33
2018-07-17T08:37:06.447Z,1007.31
2018-07-17T08:38:59.761Z,1007.28
2018-07-17T08:39:59.693Z,1007.29
2018-07-17T08:41:52.987Z,1007.30
2018-07-17T08:42:52.943Z,1007.32
2018-07-17T08:44:46.260Z,1007.33
2018-07-17T08:45:46.183Z,1007.35
2018-07-17T08:47:39.479Z,1007.34
2018-07-17T08:48:39.430Z,1007.34
2018-07-17T08:50:32.745Z,1007.36
2018-07-17T08:51:32.676Z,1007.35
2018-07-17T08:53:25.971Z,1007.32
2018-07-17T08:54:25.936Z,1007.36
2018-07-17T08:56:19.245Z,1007.43
2018-07-17T08:57:19.179Z,1007.45
2018-07-17T08:59:12.497Z,1007.44
2018-07-17T09:00:12.423Z,1007.47
2018-07-17T09:02:05.717Z,1007.33
2018-07-17T09:03:05.669Z,1007.39
2018-07-17T09:04:58.983Z,1007.44
2018-07-17T09:05:58.955Z,1007.45
2018-07-17T09:07:52.317Z,1007.49
2018-07-17T09:08:52.159Z,1007.46
2018-07-17T09:10:45.471Z,1007.44
2018-07-17T09:11:45.405Z,1007.45
2018-07-17T09:13:38.700Z,1007.46
2018-07-17T09:14:38.650Z,1007.46
2018-07-17T09:16:31.962Z,1007.44
2018-07-17T09:17:31.896Z,1007.40
2018-07-17T09:19:25.292Z,1007.41
2018-07-17T09:20:25.139Z,1007.37
2018-07-17T09:22:18.457Z,1007.42
2018-07-17T09:23:18.399Z,1007.38
2018-07-17T09:25:11.700Z,1007.48
2018-07-17T09:26:11.643Z,1007.47
2018-07-17T09:28:04.988Z,1007.43
2018-07-17T09:29:04.881Z,1007.49
2018-07-17T09:30:58.194Z,1007.54
2018-07-17T09:31:58.128Z,1007.44
2018-07-17T09:33:51.422Z,1007.43
2018-07-17T09:34:51.377Z,1007.45
2018-07-17T09:36:44.691Z,1007.48
2018-07-17T09:37:44.623Z,1007.47
2018-07-17T09:39:37.923Z,1007.48
2018-07-17T09:40:37.874Z,1007.46
2018-07-17T09:42:31.188Z,1007.46
2018-07-17T09:43:31.126Z,1007.47
2018-07-17T09:45:24.437Z,1007.44
2018-07-17T09:46:24.370Z,1007.43
2018-07-17T09:48:17.671Z,1007.45
2018-07-17T09:49:17.620Z,1007.49
2018-07-17T09:51:10.934Z,1007.46
2018-07-17T09:52:10.868Z,1007.42
2018-07-17T09:54:04.168Z,1007.40
2018-07-17T09:55:04.116Z,1007.44
2018-07-17T09:56:57.431Z,1007.41
2018-07-17T09:57:57.362Z,1007.49
2018-07-17T09:59:50.663Z,1007.53
2018-07-17T10:00:50.612Z,1007.45
2018-07-17T10:02:44.035Z,1007.48
2018-07-17T10:03:43.869Z,1007.54
2018-07-17T10:05:37.180Z,1007.51
2018-07-17T10:06:37.128Z,1007.50
2018-07-17T10:08:30.453Z,1007.57
2018-07-17T10:09:30.400Z,1007.55
2018-07-17T10:11:23.712Z,1007.54
2018-07-17T10:12:23.647Z,1007.49
2018-07-17T10:14:16.949Z,1007.54
2018-07-17T10:15:16.903Z,1007.52
2018-07-17T10:17:10.218Z,1007.54
2018-07-17T10:18:10.152Z,1007.48
2018-07-17T10:20:03.556Z,1007.49
2018-07-17T10:21:03.405Z,1007.47
2018-07-17T10:22:57.726Z,1007.51
2018-07-17T10:23:57.699Z,1007.48
2018-07-17T10:25:50.958Z,1007.49
2018-07-17T10:26:50.911Z,1007.47
2018-07-17T10:28:44.230Z,1007.49
2018-07-17T10:29:44.167Z,1007.44
2018-07-17T10:31:37.484Z,1007.43
2018-07-17T10:32:37.419Z,1007.48
2018-07-17T10:34:30.722Z,1007.54
2018-07-17T10:35:30.672Z,1007.57
2018-07-17T10:37:23.993Z,1007.56
2018-07-17T10:38:23.925Z,1007.57
2018-07-17T10:40:17.224Z,1007.61
2018-07-17T10:41:17.177Z,1007.62
2018-07-17T10:43:10.506Z,1007.65
2018-07-17T10:44:10.454Z,1007.64
2018-07-17T10:46:03.740Z,1007.65
2018-07-17T10:47:03.709Z,1007.63
2018-07-17T10:48:57.005Z,1007.62
2018-07-17T10:49:56.940Z,1007.67
2018-07-17T10:51:50.239Z,1007.59
2018-07-17T10:52:50.194Z,1007.67
2018-07-17T10:54:43.513Z,1007.64
2018-07-17T10:55:43.446Z,1007.63
2018-07-17T10:57:36.763Z,1007.67
2018-07-17T10:58:36.698Z,1007.62
2018-07-17T11:00:30.000Z,1007.62
2018-07-17T11:01:29.950Z,1007.66
2018-07-17T11:03:23.272Z,1007.65
2018-07-17T11:04:23.207Z,1007.65
2018-07-17T11:06:16.510Z,1007.68
2018-07-17T11:07:16.458Z,1007.60
2018-07-17T11:09:09.778Z,1007.55
2018-07-17T11:10:09.710Z,1007.63
2018-07-17T11:12:03.009Z,1007.61
2018-07-17T11:13:02.961Z,1007.64
2018-07-17T11:14:56.379Z,1007.58
2018-07-17T11:15:56.315Z,1007.53
2018-07-17T11:17:49.637Z,1007.48
2018-07-17T11:18:49.565Z,1007.56
2018-07-17T11:20:42.863Z,1007.50
2018-07-17T11:21:42.816Z,1007.49
2018-07-17T11:23:36.134Z,1007.54
2018-07-17T11:24:36.071Z,1007.54
2018-07-17T11:26:29.371Z,1007.48
2018-07-17T11:27:29.317Z,1007.45
2018-07-17T11:29:22.658Z,1007.48
2018-07-17T11:30:22.568Z,1007.51
2018-07-17T11:32:15.871Z,1007.46
2018-07-17T11:33:15.820Z,1007.49
2018-07-17T11:35:09.136Z,1007.53
2018-07-17T11:36:09.069Z,1007.57
2018-07-17T11:38:02.388Z,1007.45
2018-07-17T11:39:02.315Z,1007.50
2018-07-17T11:40:55.618Z,1007.25
2018-07-17T11:41:55.572Z,1007.16
2018-07-17T11:43:48.890Z,1007.32
2018-07-17T11:44:48.823Z,1007.33
2018-07-17T11:46:42.117Z,1007.41
2018-07-17T11:47:42.077Z,1007.39
2018-07-17T11:49:35.386Z,1007.23
2018-07-17T11:50:35.317Z,1007.36
2018-07-17T11:52:28.612Z,1007.38
2018-07-17T11:53:28.559Z,1007.33
2018-07-17T11:55:21.882Z,1007.32
2018-07-17T11:56:21.813Z,1007.36
2018-07-17T11:58:15.110Z,1007.31
2018-07-17T11:59:15.158Z,1007.32
2018-07-17T12:01:08.378Z,1007.35
2018-07-17T12:02:08.309Z,1007.24
2018-07-17T12:04:01.627Z,1007.33
2018-07-17T12:05:01.552Z,1007.32
2018-07-17T12:06:54.844Z,1007.29
2018-07-17T12:07:54.797Z,1007.26
2018-07-17T12:09:48.106Z,1007.26
2018-07-17T12:10:48.038Z,1007.22
2018-07-17T12:12:41.376Z,1007.20
2018-07-17T12:13:41.292Z,1007.13
2018-07-17T12:15:34.601Z,1007.16
2018-07-17T12:16:34.533Z,1007.17
2018-07-17T12:18:27.852Z,1007.17
2018-07-17T12:19:27.804Z,1007.12
2018-07-17T12:21:21.124Z,1007.18
2018-07-17T12:22:21.053Z,1007.22
2018-07-17T12:24:14.386Z,1007.21
2018-07-17T12:25:14.308Z,1007.16
2018-07-17T12:27:07.602Z,1007.08
2018-07-17T12:28:07.610Z,1007.12
2018-07-17T12:30:00.967Z,1007.06
2018-07-17T12:31:00.793Z,1007.03
2018-07-17T12:32:54.084Z,1007.13
2018-07-17T12:33:54.037Z,1007.15
2018-07-17T12:35:47.451Z,1007.19
2018-07-17T12:36:47.274Z,1007.18
2018-07-17T12:38:40.567Z,1007.12
2018-07-17T12:39:40.517Z,1007.17
2018-07-17T12:41:33.826Z,1007.17
2018-07-17T12:42:33.756Z,1007.13
2018-07-17T12:44:27.251Z,1007.06
2018-07-17T12:45:26.996Z,1007.00
2018-07-17T12:47:20.911Z,1007.04
2018-07-17T12:48:20.307Z,1006.97
2018-07-17T12:50:13.618Z,1007.05
2018-07-17T12:51:13.544Z,1007.08
2018-07-17T12:53:06.839Z,1007.06
2018-07-17T12:54:06.788Z,1007.05
2018-07-17T12:56:00.113Z,1007.02
2018-07-17T12:57:00.028Z,1007.01
2018-07-17T12:58:53.359Z,1007.05
2018-07-17T12:59:53.310Z,1007.09
2018-07-17T13:01:46.621Z,1007.08
2018-07-17T13:02:46.563Z,1007.10
2018-07-17T13:04:39.841Z,1007.10
2018-07-17T13:05:39.790Z,1007.08
2018-07-17T13:07:33.102Z,1007.08
2018-07-17T13:08:33.030Z,1007.00
2018-07-17T13:10:26.460Z,1007.02
2018-07-17T13:11:26.304Z,1007.02
2018-07-17T13:13:19.589Z,1007.02
2018-07-17T13:14:19.561Z,1007.00
2018-07-17T13:16:12.959Z,1007.05
2018-07-17T13:17:12.785Z,1007.04
2018-07-17T13:19:06.080Z,1006.98
2018-07-17T13:20:06.031Z,1006.91
2018-07-17T13:21:59.333Z,1007.06
2018-07-17T13:22:59.265Z,1007.06
2018-07-17T13:24:52.557Z,1007.02
2018-07-17T13:25:52.507Z,1006.99
2018-07-17T13:27:45.817Z,1006.97
2018-07-17T13:28:45.747Z,1007.03
2018-07-17T13:30:39.037Z,1007.06
2018-07-17T13:31:38.987Z,1007.04
2018-07-17T13:33:32.379Z,1006.99
2018-07-17T13:34:32.307Z,1007.04
2018-07-17T13:36:25.622Z,1007.03
2018-07-17T13:37:25.550Z,1007.11
2018-07-17T13:39:18.921Z,1007.00
2018-07-17T13:40:18.792Z,1007.03
2018-07-17T13:42:13.217Z,1006.98
2018-07-17T13:43:12.882Z,1007.06
2018-07-17T13:45:06.174Z,1007.02
2018-07-17T13:46:06.119Z,1007.01
2018-07-17T13:47:59.434Z,1006.96
2018-07-17T13:48:59.366Z,1006.99
2018-07-17T13:50:52.655Z,1006.89
2018-07-17T13:51:52.605Z,1007.01
2018-07-17T13:53:45.916Z,1006.89
2018-07-17T13:54:45.846Z,1006.94
2018-07-17T13:56:39.188Z,1006.97
2018-07-17T13:57:39.116Z,1006.88
2018-07-17T13:59:32.514Z,1006.96
2018-07-17T14:00:32.355Z,1007.03
2018-07-17T14:02:25.673Z,1006.98
2018-07-17T14:03:25.597Z,1006.96
2018-07-17T14:05:18.887Z,1006.92
2018-07-17T14:06:18.838Z,1006.91
2018-07-17T14:08:12.152Z,1006.96
2018-07-17T14:09:12.080Z,1006.98
2018-07-17T14:11:05.368Z,1006.84
2018-07-17T14:12:05.317Z,1006.92
2018-07-17T14:13:58.733Z,1006.95
2018-07-17T14:14:58.555Z,1006.84
2018-07-17T14:16:51.845Z,1006.86
2018-07-17T14:17:51.812Z,1006.90
2018-07-17T14:19:45.105Z,1006.83
2018-07-17T14:20:45.036Z,1006.85
2018-07-17T14:22:38.380Z,1006.87
2018-07-17T14:23:38.369Z,1006.91
2018-07-17T14:25:31.595Z,1006.80
2018-07-17T14:26:31.542Z,1006.87
2018-07-17T14:28:24.957Z,1006.90
2018-07-17T14:29:24.782Z,1006.83
2018-07-17T14:31:18.179Z,1006.89
2018-07-17T14:32:18.021Z,1006.87
2018-07-17T14:34:11.334Z,1006.89
2018-07-17T14:35:11.264Z,1006.89
2018-07-17T14:37:04.553Z,1006.89
2018-07-17T14:38:04.502Z,1006.87
2018-07-17T14:39:57.918Z,1006.87
2018-07-17T14:40:57.740Z,1006.81
2018-07-17T14:42:51.030Z,1006.84
2018-07-17T14:43:50.979Z,1006.83
2018-07-17T14:45:44.377Z,1006.85
2018-07-17T14:46:44.305Z,1006.87
2018-07-17T14:48:37.623Z,1006.88
2018-07-17T14:49:37.546Z,1006.89
2018-07-17T14:51:30.946Z,1006.79
2018-07-17T14:52:30.785Z,1006.87
2018-07-17T14:54:24.093Z,1006.84
2018-07-17T14:55:24.025Z,1006.92
2018-07-17T14:57:17.313Z,1006.85
2018-07-17T14:58:17.264Z,1006.90
2018-07-17T15:00:10.608Z,1006.78
2018-07-17T15:01:10.507Z,1006.85
2018-07-17T15:03:03.791Z,1006.81
2018-07-17T15:04:03.739Z,1006.77
2018-07-17T15:05:57.053Z,1006.96
2018-07-17T15:06:56.983Z,1006.90
2018-07-17T15:08:51.270Z,1006.90
2018-07-17T15:09:51.231Z,1006.91
2018-07-17T15:11:44.528Z,1007.00
2018-07-17T15:12:44.458Z,1006.98
2018-07-17T15:14:37.779Z,1006.93
2018-07-17T15:15:37.851Z,1006.95
2018-07-17T15:17:31.019Z,1006.94
2018-07-17T15:18:30.955Z,1006.99
2018-07-17T15:20:24.377Z,1006.98
2018-07-17T15:21:24.332Z,1006.93
2018-07-17T15:23:17.606Z,1007.04
2018-07-17T15:24:17.556Z,1006.90
2018-07-17T15:26:10.877Z,1006.91
2018-07-17T15:27:10.808Z,1007.02
2018-07-17T15:29:04.111Z,1006.94
2018-07-17T15:30:04.062Z,1006.95
2018-07-17T15:31:57.451Z,1006.95
2018-07-17T15:32:57.312Z,1006.96
2018-07-17T15:34:50.613Z,1006.99
2018-07-17T15:35:50.562Z,1006.86
2018-07-17T15:37:43.884Z,1006.98
2018-07-17T15:38:43.818Z,1006.87
2018-07-17T15:40:37.134Z,1007.01
2018-07-17T15:41:37.063Z,1006.93
2018-07-17T15:43:31.364Z,1007.00
2018-07-17T15:44:31.312Z,1007.03
2018-07-17T15:46:24.630Z,1006.95
2018-07-17T15:47:24.559Z,1007.04
2018-07-17T15:49:17.859Z,1006.98
2018-07-17T15:50:17.808Z,1007.02
2018-07-17T15:52:11.128Z,1007.04
2018-07-17T15:53:11.060Z,1006.92
2018-07-17T15:55:04.360Z,1007.04
2018-07-17T15:56:04.319Z,1007.05
2018-07-17T15:57:57.621Z,1007.13
2018-07-17T15:58:57.549Z,1007.19
2018-07-17T16:00:50.848Z,1007.13
2018-07-17T16:01:50.796Z,1007.14
2018-07-17T16:03:44.114Z,1007.14
2018-07-17T16:04:44.047Z,1007.13
2018-07-17T16:06:37.368Z,1007.17
2018-07-17T16:07:37.294Z,1007.17
2018-07-17T16:09:30.596Z,1007.16
2018-07-17T16:10:30.542Z,1007.18
2018-07-17T16:12:23.860Z,1007.13
2018-07-17T16:13:23.909Z,1007.20
2018-07-17T16:15:17.087Z,1007.19
2018-07-17T16:16:17.036Z,1007.16
2018-07-17T16:18:10.385Z,1007.16
2018-07-17T16:19:10.307Z,1007.13
2018-07-17T16:21:04.697Z,1007.12
2018-07-17T16:22:04.561Z,1007.11
2018-07-17T16:23:57.879Z,1007.14
2018-07-17T16:24:57.809Z,1007.13
2018-07-17T16:26:51.237Z,1007.11
2018-07-17T16:27:51.061Z,1007.12
2018-07-17T16:29:44.361Z,1007.12
2018-07-17T16:30:44.306Z,1007.11
2018-07-17T16:32:37.626Z,1007.06
2018-07-17T16:33:37.554Z,1007.09
2018-07-17T16:35:30.849Z,1007.12
2018-07-17T16:36:30.797Z,1007.05
2018-07-17T16:38:24.159Z,1007.11
2018-07-17T16:39:24.040Z,1007.10
2018-07-17T16:41:17.333Z,1007.07
2018-07-17T16:42:17.372Z,1007.08
2018-07-17T16:44:10.615Z,1007.10
2018-07-17T16:45:10.545Z,1007.03
2018-07-17T16:47:03.848Z,1007.08
2018-07-17T16:48:03.860Z,1007.05
2018-07-17T16:49:57.110Z,1007.10
2018-07-17T16:50:57.032Z,1007.03
2018-07-17T16:52:50.389Z,1007.02
2018-07-17T16:53:50.305Z,1007.04
2018-07-17T16:55:44.605Z,1006.97
2018-07-17T16:56:44.549Z,1007.00
2018-07-17T16:58:37.888Z,1007.01
2018-07-17T16:59:37.816Z,1007.02
2018-07-17T17:01:31.212Z,1007.04
2018-07-17T17:02:31.063Z,1006.98
2018-07-17T17:04:24.377Z,1006.99
2018-07-17T17:05:24.305Z,1006.99
2018-07-17T17:07:17.604Z,1006.98
2018-07-17T17:08:17.552Z,1007.00
2018-07-17T17:10:10.869Z,1007.00
2018-07-17T17:11:10.800Z,1006.98
2018-07-17T17:13:04.126Z,1006.98
2018-07-17T17:14:04.043Z,1006.98
2018-07-17T17:15:57.343Z,1007.00
2018-07-17T17:16:57.290Z,1007.03
2018-07-17T17:18:50.629Z,1007.09
2018-07-17T17:19:50.555Z,1007.06
2018-07-17T17:21:43.854Z,1007.03
2018-07-17T17:22:43.801Z,1007.05
2018-07-17T17:24:37.341Z,1007.09
2018-07-17T17:25:37.086Z,1007.07
2018-07-17T17:27:30.381Z,1007.09